Airfield :
LOGIN :

Register | Disclaimer

   EN    FR    IT 

 










Legend :    VFR   Marginal VFR   IFR   Intensive IFR   Very Intensive IFR
Visi :
Ceiling :
>= 8 km
>= 3000ft
5 to 8 km
1000 to 3000 ft
1500m to 5 km
500 to 1000 ft
800 to 1500m
200 to 500 ft
< 800m
< 200 ft
Symbols :   Thunderstorms  Fog  Heavy snow  Heavy precipitations  Wind > 20 kt
SIGMETs :     Misc.  Thunderstorms  Icing  Turbulence  Mountain Waves  Volcanic Ashes







- Airport Elevation : 1363 ft


ETIC - Grafenwohr Army Air Field

CURRENT METAR :
  • 210256Z AUTO 07005KT 9999 OVC015 01/00 A2988 RMK AO2 SLP139 T00121001 50004 $

EXPIRED METARs :
  • 210211Z AUTO 07006KT 9999 OVC015 01/00 A2988 RMK AO2 SLP139 $
  • 210156Z AUTO 07005KT 9999 OVC014 01/00 A2988 RMK AO2 SLP139 T00111001 $
  • 210056Z AUTO 07005KT 9999 OVC014 01/00 A2988 RMK AO2 SLP139 T00111001 $

TAF TAF ETIC
Valid from the 20 at 20:00 until the 22 at 02:00 UTC


202000Z 2020/2202 07007KT 9999 OVC014 620153 QNH2982INS
BECMG 2021/2022 VRB06KT 5000 BR OVC014 620153 QNH2984INS
TEMPO 2104/2108 3200 BR OVC009
BECMG 2108/2109 08009KT 9999 NSW OVC022 620252 QNH2987INS
BECMG 2115/2116 VRB06KT 8000 -SHRA OVC015 610202 QNH2991INS TX04/2112Z TNM01/2100Z
No reported NOTAMs for that airfield.



MET'MAP, your aeronautical weather chart ! - Copyright ORBIFLY December 2007 - Disclaimer

ORBIFLY MET'MAP TEAM :

Programming & Development : Alexandra Zaïnal
Concept & Development : Baudouin d'Aumeries
Co-Development & Prog : Marc-Olivier Méhu
Technical & hardware support : Manuel Goepfert

Contact : metmap@orbifly.com




SOURCES & CREDITS :

   NOAA